sensor_id;sensor_type;location;lat;lon;timestamp;temperature;humidity
55365;DHT22;41245;45.384;20.390;2022-10-17T00:01:34;308.00;128.00
55365;DHT22;41245;45.384;20.390;2022-10-17T00:04:00;308.00;128.00
55365;DHT22;41245;45.384;20.390;2022-10-17T00:06:26;307.90;128.00
55365;DHT22;41245;45.384;20.390;2022-10-17T00:08:51;307.80;128.00
55365;DHT22;41245;45.384;20.390;2022-10-17T00:11:20;307.80;128.00
55365;DHT22;41245;45.384;20.390;2022-10-17T00:13:47;307.80;128.00
55365;DHT22;41245;45.384;20.390;2022-10-17T00:36:14;308.00;128.00
55365;DHT22;41245;45.384;20.390;2022-10-17T00:38:42;307.90;128.00
55365;DHT22;41245;45.384;20.390;2022-10-17T00:41:09;307.80;128.00
55365;DHT22;41245;45.384;20.390;2022-10-17T00:46:51;307.70;128.00
55365;DHT22;41245;45.384;20.390;2022-10-17T00:49:18;307.70;128.00
55365;DHT22;41245;45.384;20.390;2022-10-17T00:51:53;307.70;128.00
55365;DHT22;41245;45.384;20.390;2022-10-17T00:54:24;307.70;128.00
55365;DHT22;41245;45.384;20.390;2022-10-17T00:56:51;307.60;128.00
55365;DHT22;41245;45.384;20.390;2022-10-17T00:59:20;307.60;128.00
55365;DHT22;41245;45.384;20.390;2022-10-17T01:01:59;307.60;128.00
55365;DHT22;41245;45.384;20.390;2022-10-17T01:04:26;307.60;128.00
55365;DHT22;41245;45.384;20.390;2022-10-17T01:06:52;307.50;128.00
55365;DHT22;41245;45.384;20.390;2022-10-17T01:09:18;307.50;128.00
55365;DHT22;41245;45.384;20.390;2022-10-17T01:11:51;307.60;128.00
55365;DHT22;41245;45.384;20.390;2022-10-17T01:30:52;307.50;128.00
55365;DHT22;41245;45.384;20.390;2022-10-17T01:34:02;307.20;128.00
55365;DHT22;41245;45.384;20.390;2022-10-17T01:36:51;307.50;128.00
55365;DHT22;41245;45.384;20.390;2022-10-17T01:44:41;307.50;128.00
55365;DHT22;41245;45.384;20.390;2022-10-17T01:47:16;307.50;128.00
55365;DHT22;41245;45.384;20.390;2022-10-17T01:49:44;307.50;128.00
55365;DHT22;41245;45.384;20.390;2022-10-17T01:52:14;307.40;128.00
55365;DHT22;41245;45.384;20.390;2022-10-17T01:54:49;307.40;128.00
55365;DHT22;41245;45.384;20.390;2022-10-17T01:57:28;307.40;128.00
55365;DHT22;41245;45.384;20.390;2022-10-17T01:59:55;307.50;128.00
55365;DHT22;41245;45.384;20.390;2022-10-17T02:02:22;307.50;128.00
55365;DHT22;41245;45.384;20.390;2022-10-17T02:04:50;307.50;128.00
55365;DHT22;41245;45.384;20.390;2022-10-17T02:07:16;307.50;128.00
55365;DHT22;41245;45.384;20.390;2022-10-17T02:09:42;307.40;128.00
55365;DHT22;41245;45.384;20.390;2022-10-17T02:21:53;307.20;128.00
55365;DHT22;41245;45.384;20.390;2022-10-17T02:29:48;282.40;6528.00
55365;DHT22;41245;45.384;20.390;2022-10-17T02:32:23;282.40;6528.00
55365;DHT22;41245;45.384;20.390;2022-10-17T02:34:53;282.40;6528.00
55365;DHT22;41245;45.384;20.390;2022-10-17T02:37:24;282.40;6528.00
55365;DHT22;41245;45.384;20.390;2022-10-17T02:39:53;282.50;6528.00
55365;DHT22;41245;45.384;20.390;2022-10-17T02:42:20;282.30;6528.00
55365;DHT22;41245;45.384;20.390;2022-10-17T02:44:48;282.30;6528.00
55365;DHT22;41245;45.384;20.390;2022-10-17T02:47:35;282.20;6528.00
55365;DHT22;41245;45.384;20.390;2022-10-17T02:50:05;282.30;6528.00
55365;DHT22;41245;45.384;20.390;2022-10-17T02:53:03;282.20;6528.00
55365;DHT22;41245;45.384;20.390;2022-10-17T02:55:35;282.20;6528.00
55365;DHT22;41245;45.384;20.390;2022-10-17T02:58:16;282.20;6528.00
55365;DHT22;41245;45.384;20.390;2022-10-17T03:00:43;282.20;6528.00
55365;DHT22;41245;45.384;20.390;2022-10-17T03:03:29;282.10;6528.00
55365;DHT22;41245;45.384;20.390;2022-10-17T03:05:55;282.10;6528.00
55365;DHT22;41245;45.384;20.390;2022-10-17T03:08:22;282.10;6528.00
55365;DHT22;41245;45.384;20.390;2022-10-17T03:10:48;282.10;6528.00
55365;DHT22;41245;45.384;20.390;2022-10-17T03:13:14;281.90;6528.00
55365;DHT22;41245;45.384;20.390;2022-10-17T03:15:40;281.90;6528.00
55365;DHT22;41245;45.384;20.390;2022-10-17T03:18:06;281.90;6528.00
55365;DHT22;41245;45.384;20.390;2022-10-17T03:20:32;281.90;6528.00
55365;DHT22;41245;45.384;20.390;2022-10-17T03:22:58;281.90;6528.00
55365;DHT22;41245;45.384;20.390;2022-10-17T03:25:23;281.90;6528.00
55365;DHT22;41245;45.384;20.390;2022-10-17T03:27:50;281.90;6528.00
55365;DHT22;41245;45.384;20.390;2022-10-17T03:30:16;281.90;6528.00
55365;DHT22;41245;45.384;20.390;2022-10-17T03:32:42;281.80;6528.00
55365;DHT22;41245;45.384;20.390;2022-10-17T03:35:08;281.70;6528.00
55365;DHT22;41245;45.384;20.390;2022-10-17T03:37:33;281.70;6528.00
55365;DHT22;41245;45.384;20.390;2022-10-17T03:39:59;281.70;6528.00
55365;DHT22;41245;45.384;20.390;2022-10-17T03:42:25;281.70;6528.00
55365;DHT22;41245;45.384;20.390;2022-10-17T03:44:51;281.70;6528.00
55365;DHT22;41245;45.384;20.390;2022-10-17T03:47:16;281.60;6528.00
55365;DHT22;41245;45.384;20.390;2022-10-17T03:49:42;281.60;6528.00
55365;DHT22;41245;45.384;20.390;2022-10-17T03:52:13;281.60;6528.00
55365;DHT22;41245;45.384;20.390;2022-10-17T03:54:39;281.60;6528.00
55365;DHT22;41245;45.384;20.390;2022-10-17T03:57:05;256.90;6502.40
55365;DHT22;41245;45.384;20.390;2022-10-17T03:59:31;256.80;6502.40
55365;DHT22;41245;45.384;20.390;2022-10-17T04:01:56;256.80;6502.40
55365;DHT22;41245;45.384;20.390;2022-10-17T04:04:22;256.80;6502.40
55365;DHT22;41245;45.384;20.390;2022-10-17T04:06:48;256.80;6502.40
55365;DHT22;41245;45.384;20.390;2022-10-17T04:09:13;256.80;6502.40
55365;DHT22;41245;45.384;20.390;2022-10-17T04:11:39;256.90;6502.40
55365;DHT22;41245;45.384;20.390;2022-10-17T04:43:34;256.60;6502.40
55365;DHT22;41245;45.384;20.390;2022-10-17T04:46:01;256.60;6502.40
55365;DHT22;41245;45.384;20.390;2022-10-17T04:48:28;256.50;6502.40
55365;DHT22;41245;45.384;20.390;2022-10-17T04:51:06;256.50;6502.40
55365;DHT22;41245;45.384;20.390;2022-10-17T04:53:33;256.40;6502.40
55365;DHT22;41245;45.384;20.390;2022-10-17T04:55:59;256.40;6502.40
55365;DHT22;41245;45.384;20.390;2022-10-17T04:58:27;256.40;6502.40
55365;DHT22;41245;45.384;20.390;2022-10-17T05:00:53;256.40;6502.40
55365;DHT22;41245;45.384;20.390;2022-10-17T05:03:19;256.40;6502.40
55365;DHT22;41245;45.384;20.390;2022-10-17T05:05:45;256.40;6502.40
55365;DHT22;41245;45.384;20.390;2022-10-17T05:08:11;256.50;6502.40
55365;DHT22;41245;45.384;20.390;2022-10-17T05:10:39;256.50;6502.40
55365;DHT22;41245;45.384;20.390;2022-10-17T05:13:05;256.50;6502.40
55365;DHT22;41245;45.384;20.390;2022-10-17T05:15:31;256.60;6502.40
55365;DHT22;41245;45.384;20.390;2022-10-17T05:17:57;256.60;6502.40
55365;DHT22;41245;45.384;20.390;2022-10-17T05:20:23;256.70;6502.40
55365;DHT22;41245;45.384;20.390;2022-10-17T05:22:49;256.80;6502.40
55365;DHT22;41245;45.384;20.390;2022-10-17T05:25:15;282.20;6528.00
55365;DHT22;41245;45.384;20.390;2022-10-17T05:27:40;256.90;6502.40
55365;DHT22;41245;45.384;20.390;2022-10-17T05:30:06;281.60;6528.00
55365;DHT22;41245;45.384;20.390;2022-10-17T05:32:32;281.70;6528.00
55365;DHT22;41245;45.384;20.390;2022-10-17T05:34:58;281.80;6528.00
55365;DHT22;41245;45.384;20.390;2022-10-17T05:37:24;281.90;6528.00
55365;DHT22;41245;45.384;20.390;2022-10-17T05:39:50;282.00;6528.00
55365;DHT22;41245;45.384;20.390;2022-10-17T05:42:15;282.10;6528.00
55365;DHT22;41245;45.384;20.390;2022-10-17T05:44:41;282.30;6528.00
55365;DHT22;41245;45.384;20.390;2022-10-17T05:47:07;282.40;6528.00
55365;DHT22;41245;45.384;20.390;2022-10-17T05:49:33;282.50;6528.00
55365;DHT22;41245;45.384;20.390;2022-10-17T05:51:59;307.30;128.00
55365;DHT22;41245;45.384;20.390;2022-10-17T05:54:25;307.50;128.00
55365;DHT22;41245;45.384;20.390;2022-10-17T05:56:52;307.60;128.00
55365;DHT22;41245;45.384;20.390;2022-10-17T05:59:18;307.80;128.00
55365;DHT22;41245;45.384;20.390;2022-10-17T06:01:44;308.00;128.00
55365;DHT22;41245;45.384;20.390;2022-10-17T06:04:09;308.10;128.00
55365;DHT22;41245;45.384;20.390;2022-10-17T06:06:36;333.10;128.00
55365;DHT22;41245;45.384;20.390;2022-10-17T06:09:02;333.10;128.00
55365;DHT22;41245;45.384;20.390;2022-10-17T06:13:54;333.40;128.00
55365;DHT22;41245;45.384;20.390;2022-10-17T06:16:20;333.50;128.00
55365;DHT22;41245;45.384;20.390;2022-10-17T06:18:46;333.60;128.00
55365;DHT22;41245;45.384;20.390;2022-10-17T06:21:14;333.60;128.00
55365;DHT22;41245;45.384;20.390;2022-10-17T06:23:41;333.70;128.00
55365;DHT22;41245;45.384;20.390;2022-10-17T06:26:07;358.40;128.00
55365;DHT22;41245;45.384;20.390;2022-10-17T06:28:34;358.50;128.00
55365;DHT22;41245;45.384;20.390;2022-10-17T06:31:05;358.70;128.00
55365;DHT22;41245;45.384;20.390;2022-10-17T06:33:31;358.80;128.00
55365;DHT22;41245;45.384;20.390;2022-10-17T06:35:56;359.00;128.00
55365;DHT22;41245;45.384;20.390;2022-10-17T06:38:22;358.90;128.00
55365;DHT22;41245;45.384;20.390;2022-10-17T06:40:48;359.20;128.00
55365;DHT22;41245;45.384;20.390;2022-10-17T06:43:14;359.20;128.00
55365;DHT22;41245;45.384;20.390;2022-10-17T06:45:40;359.20;128.00
55365;DHT22;41245;45.384;20.390;2022-10-17T06:48:06;359.30;128.00
55365;DHT22;41245;45.384;20.390;2022-10-17T06:50:31;384.00;128.00
55365;DHT22;41245;45.384;20.390;2022-10-17T06:52:57;384.10;128.00
55365;DHT22;41245;45.384;20.390;2022-10-17T06:55:23;384.20;128.00
55365;DHT22;41245;45.384;20.390;2022-10-17T06:57:49;384.30;128.00
55365;DHT22;41245;45.384;20.390;2022-10-17T07:00:16;384.40;128.00
55365;DHT22;41245;45.384;20.390;2022-10-17T07:02:43;384.50;128.00
55365;DHT22;41245;45.384;20.390;2022-10-17T07:05:09;384.60;128.00
55365;DHT22;41245;45.384;20.390;2022-10-17T07:07:34;384.70;128.00
55365;DHT22;41245;45.384;20.390;2022-10-17T07:10:00;384.80;128.00
55365;DHT22;41245;45.384;20.390;2022-10-17T07:12:26;409.60;128.00
55365;DHT22;41245;45.384;20.390;2022-10-17T07:14:51;409.60;128.00
55365;DHT22;41245;45.384;20.390;2022-10-17T07:17:17;409.70;128.00
55365;DHT22;41245;45.384;20.390;2022-10-17T07:19:44;410.00;128.00
55365;DHT22;41245;45.384;20.390;2022-10-17T07:24:36;410.30;128.00
55365;DHT22;41245;45.384;20.390;2022-10-17T07:27:01;410.30;128.00
55365;DHT22;41245;45.384;20.390;2022-10-17T07:29:28;410.40;128.00
55365;DHT22;41245;45.384;20.390;2022-10-17T07:31:53;410.50;128.00
55365;DHT22;41245;45.384;20.390;2022-10-17T07:34:19;435.20;128.00
55365;DHT22;41245;45.384;20.390;2022-10-17T07:36:45;435.50;128.00
55365;DHT22;41245;45.384;20.390;2022-10-17T07:39:11;435.50;128.00
55365;DHT22;41245;45.384;20.390;2022-10-17T08:28:05;486.50;640.00
55365;DHT22;41245;45.384;20.390;2022-10-17T08:30:31;461.70;281.60
55365;DHT22;41245;45.384;20.390;2022-10-17T08:32:57;486.40;691.20
55365;DHT22;41245;45.384;20.390;2022-10-17T08:35:23;486.40;435.20
55365;DHT22;41245;45.384;20.390;2022-10-17T08:37:49;486.50;358.40
55365;DHT22;41245;45.384;20.390;2022-10-17T08:40:23;486.50;640.00
55365;DHT22;41245;45.384;20.390;2022-10-17T08:48:13;486.70;128.00
55365;DHT22;41245;45.384;20.390;2022-10-17T08:51:20;486.90;128.00
55365;DHT22;41245;45.384;20.390;2022-10-17T08:53:54;486.80;128.00
55365;DHT22;41245;45.384;20.390;2022-10-17T08:56:26;486.90;128.00
55365;DHT22;41245;45.384;20.390;2022-10-17T08:58:53;487.00;128.00
55365;DHT22;41245;45.384;20.390;2022-10-17T09:01:31;487.20;563.20
55365;DHT22;41245;45.384;20.390;2022-10-17T09:15:21;512.00;128.00
55365;DHT22;41245;45.384;20.390;2022-10-17T09:17:58;512.00;128.00
55365;DHT22;41245;45.384;20.390;2022-10-17T09:20:30;512.00;128.00
55365;DHT22;41245;45.384;20.390;2022-10-17T09:23:04;512.10;128.00
55365;DHT22;41245;45.384;20.390;2022-10-17T09:25:39;512.10;128.00
55365;DHT22;41245;45.384;20.390;2022-10-17T09:28:14;512.20;128.00
55365;DHT22;41245;45.384;20.390;2022-10-17T09:30:55;512.30;128.00
55365;DHT22;41245;45.384;20.390;2022-10-17T09:33:26;512.40;128.00
55365;DHT22;41245;45.384;20.390;2022-10-17T09:35:53;512.60;128.00
55365;DHT22;41245;45.384;20.390;2022-10-17T09:38:22;512.60;128.00
55365;DHT22;41245;45.384;20.390;2022-10-17T09:40:55;512.70;128.00
55365;DHT22;41245;45.384;20.390;2022-10-17T09:43:21;512.80;128.00
55365;DHT22;41245;45.384;20.390;2022-10-17T09:50:59;537.60;128.00
55365;DHT22;41245;45.384;20.390;2022-10-17T09:53:55;537.60;128.00
55365;DHT22;41245;45.384;20.390;2022-10-17T09:56:24;537.60;128.00
55365;DHT22;41245;45.384;20.390;2022-10-17T09:58:52;537.70;128.00
55365;DHT22;41245;45.384;20.390;2022-10-17T10:01:22;537.70;128.00
55365;DHT22;41245;45.384;20.390;2022-10-17T10:04:10;537.90;128.00
55365;DHT22;41245;45.384;20.390;2022-10-17T10:11:53;538.20;128.00
55365;DHT22;41245;45.384;20.390;2022-10-17T10:14:31;538.00;128.00
55365;DHT22;41245;45.384;20.390;2022-10-17T10:16:58;538.10;128.00
55365;DHT22;41245;45.384;20.390;2022-10-17T10:19:36;538.00;128.00
55365;DHT22;41245;45.384;20.390;2022-10-17T10:22:19;538.00;128.00
55365;DHT22;41245;45.384;20.390;2022-10-17T10:25:15;538.10;128.00
55365;DHT22;41245;45.384;20.390;2022-10-17T10:27:43;538.20;128.00
55365;DHT22;41245;45.384;20.390;2022-10-17T10:30:20;538.20;128.00
55365;DHT22;41245;45.384;20.390;2022-10-17T10:32:49;538.30;128.00
55365;DHT22;41245;45.384;20.390;2022-10-17T10:37:52;538.30;128.00
55365;DHT22;41245;45.384;20.390;2022-10-17T10:42:50;538.40;128.00
55365;DHT22;41245;45.384;20.390;2022-10-17T10:45:22;538.40;128.00
55365;DHT22;41245;45.384;20.390;2022-10-17T10:55:39;563.20;128.00
55365;DHT22;41245;45.384;20.390;2022-10-17T11:00:53;563.20;128.00
55365;DHT22;41245;45.384;20.390;2022-10-17T11:03:26;563.50;128.00
55365;DHT22;41245;45.384;20.390;2022-10-17T11:06:10;563.50;128.00
55365;DHT22;41245;45.384;20.390;2022-10-17T11:08:48;563.40;128.00
55365;DHT22;41245;45.384;20.390;2022-10-17T11:11:33;563.50;128.00
55365;DHT22;41245;45.384;20.390;2022-10-17T11:19:24;563.60;128.00
55365;DHT22;41245;45.384;20.390;2022-10-17T11:24:47;563.70;128.00
55365;DHT22;41245;45.384;20.390;2022-10-17T11:27:15;563.70;128.00
55365;DHT22;41245;45.384;20.390;2022-10-17T11:29:41;563.80;128.00
55365;DHT22;41245;45.384;20.390;2022-10-17T11:32:22;563.80;128.00
55365;DHT22;41245;45.384;20.390;2022-10-17T11:34:56;563.80;128.00
55365;DHT22;41245;45.384;20.390;2022-10-17T11:37:29;563.80;128.00
55365;DHT22;41245;45.384;20.390;2022-10-17T11:40:06;563.80;128.00
55365;DHT22;41245;45.384;20.390;2022-10-17T11:43:00;563.70;128.00
55365;DHT22;41245;45.384;20.390;2022-10-17T11:45:25;563.80;128.00
55365;DHT22;41245;45.384;20.390;2022-10-17T11:47:57;563.70;128.00
55365;DHT22;41245;45.384;20.390;2022-10-17T11:50:31;563.70;128.00
55365;DHT22;41245;45.384;20.390;2022-10-17T11:55:37;563.90;128.00
55365;DHT22;41245;45.384;20.390;2022-10-17T12:04:01;564.00;128.00
55365;DHT22;41245;45.384;20.390;2022-10-17T12:09:25;564.00;128.00
55365;DHT22;41245;45.384;20.390;2022-10-17T12:11:55;564.00;128.00
55365;DHT22;41245;45.384;20.390;2022-10-17T12:14:41;564.10;128.00
55365;DHT22;41245;45.384;20.390;2022-10-17T12:17:35;564.00;128.00
55365;DHT22;41245;45.384;20.390;2022-10-17T12:25:48;563.90;128.00
55365;DHT22;41245;45.384;20.390;2022-10-17T12:29:01;563.90;128.00
55365;DHT22;41245;45.384;20.390;2022-10-17T12:31:24;564.00;128.00
55365;DHT22;41245;45.384;20.390;2022-10-17T12:49:43;563.90;128.00
55365;DHT22;41245;45.384;20.390;2022-10-17T12:55:17;563.90;128.00
55365;DHT22;41245;45.384;20.390;2022-10-17T12:57:55;563.90;128.00
55365;DHT22;41245;45.384;20.390;2022-10-17T13:03:25;563.90;128.00
55365;DHT22;41245;45.384;20.390;2022-10-17T13:05:58;563.80;128.00
55365;DHT22;41245;45.384;20.390;2022-10-17T13:08:38;563.80;128.00
55365;DHT22;41245;45.384;20.390;2022-10-17T13:11:07;563.80;128.00
55365;DHT22;41245;45.384;20.390;2022-10-17T13:13:44;563.80;128.00
55365;DHT22;41245;45.384;20.390;2022-10-17T13:18:56;563.80;128.00
55365;DHT22;41245;45.384;20.390;2022-10-17T13:21:22;563.90;128.00
55365;DHT22;41245;45.384;20.390;2022-10-17T13:23:48;563.80;128.00
55365;DHT22;41245;45.384;20.390;2022-10-17T13:26:21;563.80;128.00
55365;DHT22;41245;45.384;20.390;2022-10-17T13:29:10;563.80;128.00
55365;DHT22;41245;45.384;20.390;2022-10-17T13:31:38;563.80;128.00
55365;DHT22;41245;45.384;20.390;2022-10-17T13:34:14;563.80;128.00
55365;DHT22;41245;45.384;20.390;2022-10-17T13:36:41;563.80;128.00
55365;DHT22;41245;45.384;20.390;2022-10-17T13:39:09;563.80;128.00
55365;DHT22;41245;45.384;20.390;2022-10-17T13:41:39;563.80;128.00
55365;DHT22;41245;45.384;20.390;2022-10-17T13:44:22;563.80;128.00
55365;DHT22;41245;45.384;20.390;2022-10-17T13:46:49;563.80;128.00
55365;DHT22;41245;45.384;20.390;2022-10-17T13:51:48;563.70;128.00
55365;DHT22;41245;45.384;20.390;2022-10-17T13:54:37;563.70;128.00
55365;DHT22;41245;45.384;20.390;2022-10-17T13:57:15;563.70;128.00
55365;DHT22;41245;45.384;20.390;2022-10-17T13:59:43;563.70;128.00
55365;DHT22;41245;45.384;20.390;2022-10-17T14:02:26;563.60;128.00
55365;DHT22;41245;45.384;20.390;2022-10-17T14:05:11;563.60;128.00
55365;DHT22;41245;45.384;20.390;2022-10-17T14:07:53;563.60;128.00
55365;DHT22;41245;45.384;20.390;2022-10-17T14:10:22;563.50;128.00
55365;DHT22;41245;45.384;20.390;2022-10-17T14:12:50;563.50;128.00
55365;DHT22;41245;45.384;20.390;2022-10-17T14:15:17;563.50;128.00
55365;DHT22;41245;45.384;20.390;2022-10-17T14:17:44;563.40;128.00
55365;DHT22;41245;45.384;20.390;2022-10-17T14:20:20;563.40;128.00
55365;DHT22;41245;45.384;20.390;2022-10-17T14:22:47;563.50;128.00
55365;DHT22;41245;45.384;20.390;2022-10-17T14:25:32;563.30;128.00
55365;DHT22;41245;45.384;20.390;2022-10-17T14:30:46;538.50;128.00
55365;DHT22;41245;45.384;20.390;2022-10-17T14:33:22;538.50;128.00
55365;DHT22;41245;45.384;20.390;2022-10-17T14:35:52;538.40;128.00
55365;DHT22;41245;45.384;20.390;2022-10-17T14:38:19;538.40;128.00
55365;DHT22;41245;45.384;20.390;2022-10-17T14:40:50;538.40;128.00
55365;DHT22;41245;45.384;20.390;2022-10-17T14:43:21;538.40;128.00
55365;DHT22;41245;45.384;20.390;2022-10-17T14:45:48;538.30;128.00
55365;DHT22;41245;45.384;20.390;2022-10-17T14:48:20;538.30;128.00
55365;DHT22;41245;45.384;20.390;2022-10-17T14:51:08;538.30;128.00
55365;DHT22;41245;45.384;20.390;2022-10-17T14:53:34;538.20;128.00
55365;DHT22;41245;45.384;20.390;2022-10-17T14:56:22;538.10;128.00
55365;DHT22;41245;45.384;20.390;2022-10-17T14:58:48;538.00;128.00
55365;DHT22;41245;45.384;20.390;2022-10-17T15:01:14;538.00;128.00
55365;DHT22;41245;45.384;20.390;2022-10-17T15:03:39;537.90;128.00
55365;DHT22;41245;45.384;20.390;2022-10-17T15:06:32;537.90;128.00
55365;DHT22;41245;45.384;20.390;2022-10-17T15:08:59;537.70;128.00
55365;DHT22;41245;45.384;20.390;2022-10-17T15:11:25;537.70;128.00
55365;DHT22;41245;45.384;20.390;2022-10-17T15:13:51;537.60;128.00
55365;DHT22;41245;45.384;20.390;2022-10-17T15:16:25;537.60;128.00
55365;DHT22;41245;45.384;20.390;2022-10-17T15:31:13;512.60;128.00
55365;DHT22;41245;45.384;20.390;2022-10-17T15:33:40;512.40;128.00
55365;DHT22;41245;45.384;20.390;2022-10-17T15:36:21;512.30;128.00
55365;DHT22;41245;45.384;20.390;2022-10-17T15:38:49;512.10;128.00
55365;DHT22;41245;45.384;20.390;2022-10-17T15:41:16;512.00;128.00
55365;DHT22;41245;45.384;20.390;2022-10-17T15:43:42;512.00;128.00
55365;DHT22;41245;45.384;20.390;2022-10-17T15:46:13;487.20;128.00
55365;DHT22;41245;45.384;20.390;2022-10-17T15:48:40;487.20;128.00
55365;DHT22;41245;45.384;20.390;2022-10-17T15:51:06;487.00;128.00
55365;DHT22;41245;45.384;20.390;2022-10-17T15:53:32;486.90;128.00
55365;DHT22;41245;45.384;20.390;2022-10-17T15:55:58;486.80;128.00
55365;DHT22;41245;45.384;20.390;2022-10-17T15:58:24;486.70;128.00
55365;DHT22;41245;45.384;20.390;2022-10-17T16:00:52;486.50;128.00
55365;DHT22;41245;45.384;20.390;2022-10-17T16:03:18;486.40;128.00
55365;DHT22;41245;45.384;20.390;2022-10-17T16:05:44;486.40;128.00
55365;DHT22;41245;45.384;20.390;2022-10-17T16:08:10;461.70;128.00
55365;DHT22;41245;45.384;20.390;2022-10-17T16:10:38;461.60;128.00
55365;DHT22;41245;45.384;20.390;2022-10-17T16:13:04;461.50;128.00
55365;DHT22;41245;45.384;20.390;2022-10-17T16:15:29;461.50;128.00
55365;DHT22;41245;45.384;20.390;2022-10-17T16:17:56;461.30;128.00
55365;DHT22;41245;45.384;20.390;2022-10-17T16:22:50;461.30;128.00
55365;DHT22;41245;45.384;20.390;2022-10-17T16:27:45;461.00;128.00
55365;DHT22;41245;45.384;20.390;2022-10-17T16:30:12;460.90;128.00
55365;DHT22;41245;45.384;20.390;2022-10-17T16:32:37;460.80;128.00
55365;DHT22;41245;45.384;20.390;2022-10-17T16:35:04;436.10;128.00
55365;DHT22;41245;45.384;20.390;2022-10-17T16:37:30;436.00;128.00
55365;DHT22;41245;45.384;20.390;2022-10-17T16:39:56;436.00;128.00
55365;DHT22;41245;45.384;20.390;2022-10-17T16:52:08;435.90;128.00
55365;DHT22;41245;45.384;20.390;2022-10-17T16:54:33;435.80;128.00
55365;DHT22;41245;45.384;20.390;2022-10-17T16:57:00;435.60;128.00
55365;DHT22;41245;45.384;20.390;2022-10-17T16:59:26;435.50;128.00
55365;DHT22;41245;45.384;20.390;2022-10-17T17:01:52;435.40;128.00
55365;DHT22;41245;45.384;20.390;2022-10-17T17:04:18;435.30;128.00
55365;DHT22;41245;45.384;20.390;2022-10-17T17:06:44;435.30;128.00
55365;DHT22;41245;45.384;20.390;2022-10-17T17:09:10;435.20;128.00
55365;DHT22;41245;45.384;20.390;2022-10-17T17:11:36;435.20;128.00
55365;DHT22;41245;45.384;20.390;2022-10-17T17:14:03;435.20;128.00
55365;DHT22;41245;45.384;20.390;2022-10-17T17:16:30;410.50;128.00
55365;DHT22;41245;45.384;20.390;2022-10-17T17:19:01;410.50;128.00
55365;DHT22;41245;45.384;20.390;2022-10-17T17:21:27;410.40;128.00
55365;DHT22;41245;45.384;20.390;2022-10-17T17:23:54;410.40;128.00
55365;DHT22;41245;45.384;20.390;2022-10-17T17:26:23;410.40;128.00
55365;DHT22;41245;45.384;20.390;2022-10-17T17:28:49;410.30;128.00
55365;DHT22;41245;45.384;20.390;2022-10-17T17:31:24;410.20;128.00
55365;DHT22;41245;45.384;20.390;2022-10-17T17:33:51;410.20;128.00
55365;DHT22;41245;45.384;20.390;2022-10-17T17:36:20;410.10;128.00
55365;DHT22;41245;45.384;20.390;2022-10-17T17:38:47;410.10;128.00
55365;DHT22;41245;45.384;20.390;2022-10-17T17:41:17;410.00;128.00
55365;DHT22;41245;45.384;20.390;2022-10-17T17:43:45;410.00;128.00
55365;DHT22;41245;45.384;20.390;2022-10-17T17:46:12;409.90;614.40
55365;DHT22;41245;45.384;20.390;2022-10-17T17:48:39;409.80;512.00
55365;DHT22;41245;45.384;20.390;2022-10-17T17:51:07;409.70;588.80
55365;DHT22;41245;45.384;20.390;2022-10-17T17:53:33;409.70;614.40
55365;DHT22;41245;45.384;20.390;2022-10-17T17:56:07;409.70;537.60
55365;DHT22;41245;45.384;20.390;2022-10-17T17:58:34;409.70;128.00
55365;DHT22;41245;45.384;20.390;2022-10-17T18:01:00;409.70;665.60
55365;DHT22;41245;45.384;20.390;2022-10-17T18:03:26;409.60;128.00
55365;DHT22;41245;45.384;20.390;2022-10-17T18:05:52;409.60;128.00
55365;DHT22;41245;45.384;20.390;2022-10-17T18:08:18;384.90;537.60
55365;DHT22;41245;45.384;20.390;2022-10-17T18:10:50;384.80;128.00
55365;DHT22;41245;45.384;20.390;2022-10-17T18:13:19;384.70;128.00
55365;DHT22;41245;45.384;20.390;2022-10-17T18:15:45;384.70;358.40
55365;DHT22;41245;45.384;20.390;2022-10-17T18:18:11;384.60;128.00
55365;DHT22;41245;45.384;20.390;2022-10-17T18:20:41;384.50;128.00
55365;DHT22;41245;45.384;20.390;2022-10-17T18:23:07;384.50;128.00
55365;DHT22;41245;45.384;20.390;2022-10-17T18:25:33;384.40;128.00
55365;DHT22;41245;45.384;20.390;2022-10-17T18:27:58;384.40;128.00
55365;DHT22;41245;45.384;20.390;2022-10-17T18:30:24;384.40;128.00
55365;DHT22;41245;45.384;20.390;2022-10-17T18:32:50;384.30;128.00
55365;DHT22;41245;45.384;20.390;2022-10-17T18:35:15;384.30;384.00
55365;DHT22;41245;45.384;20.390;2022-10-17T18:37:41;384.30;128.00
55365;DHT22;41245;45.384;20.390;2022-10-17T18:40:07;384.30;640.00
55365;DHT22;41245;45.384;20.390;2022-10-17T18:42:33;384.20;537.60
55365;DHT22;41245;45.384;20.390;2022-10-17T18:44:59;384.20;435.20
55365;DHT22;41245;45.384;20.390;2022-10-17T18:47:25;384.20;128.00
55365;DHT22;41245;45.384;20.390;2022-10-17T18:49:50;384.10;537.60
55365;DHT22;41245;45.384;20.390;2022-10-17T18:52:16;384.10;537.60
55365;DHT22;41245;45.384;20.390;2022-10-17T18:54:42;384.10;256.00
55365;DHT22;41245;45.384;20.390;2022-10-17T18:57:07;384.10;409.60
55365;DHT22;41245;45.384;20.390;2022-10-17T18:59:33;384.00;460.80
55365;DHT22;41245;45.384;20.390;2022-10-17T19:01:58;384.00;384.00
55365;DHT22;41245;45.384;20.390;2022-10-17T19:04:24;384.00;256.00
55365;DHT22;41245;45.384;20.390;2022-10-17T19:06:50;384.00;332.80
55365;DHT22;41245;45.384;20.390;2022-10-17T19:09:16;384.00;281.60
55365;DHT22;41245;45.384;20.390;2022-10-17T19:11:42;384.00;281.60
55365;DHT22;41245;45.384;20.390;2022-10-17T19:14:10;359.30;537.60
55365;DHT22;41245;45.384;20.390;2022-10-17T19:16:47;359.30;204.80
55365;DHT22;41245;45.384;20.390;2022-10-17T19:19:16;359.30;230.40
55365;DHT22;41245;45.384;20.390;2022-10-17T19:21:42;359.20;537.60
55365;DHT22;41245;45.384;20.390;2022-10-17T19:24:19;359.20;230.40
55365;DHT22;41245;45.384;20.390;2022-10-17T19:26:46;359.20;281.60